sensor_id;sensor_type;location;lat;lon;timestamp;temperature;humidity
5930;DHT22;2990;48.746;9.236;2023-03-01T00:02:25;-1.20;99.90
5930;DHT22;2990;48.746;9.236;2023-03-01T00:04:51;-1.20;1.00
5930;DHT22;2990;48.746;9.236;2023-03-01T00:07:20;-1.20;99.90
5930;DHT22;2990;48.746;9.236;2023-03-01T00:09:45;-1.20;1.00
5930;DHT22;2990;48.746;9.236;2023-03-01T00:12:11;-1.20;1.00
5930;DHT22;2990;48.746;9.236;2023-03-01T00:14:37;-1.20;1.00
5930;DHT22;2990;48.746;9.236;2023-03-01T00:17:02;-1.20;1.00
5930;DHT22;2990;48.746;9.236;2023-03-01T00:19:28;-1.30;1.00
5930;DHT22;2990;48.746;9.236;2023-03-01T00:21:54;-1.20;1.00
5930;DHT22;2990;48.746;9.236;2023-03-01T00:24:19;-1.20;1.00
5930;DHT22;2990;48.746;9.236;2023-03-01T00:26:45;-1.20;1.00
5930;DHT22;2990;48.746;9.236;2023-03-01T00:29:11;-1.30;1.00
5930;DHT22;2990;48.746;9.236;2023-03-01T00:31:37;-1.30;1.00
5930;DHT22;2990;48.746;9.236;2023-03-01T00:34:04;-1.30;1.00
5930;DHT22;2990;48.746;9.236;2023-03-01T00:36:34;-1.30;1.00
5930;DHT22;2990;48.746;9.236;2023-03-01T00:39:00;-1.30;99.90
5930;DHT22;2990;48.746;9.236;2023-03-01T00:41:27;-1.30;99.90
5930;DHT22;2990;48.746;9.236;2023-03-01T00:43:53;-1.30;99.90
5930;DHT22;2990;48.746;9.236;2023-03-01T00:46:21;-1.30;99.90
5930;DHT22;2990;48.746;9.236;2023-03-01T00:48:48;-1.40;99.90
5930;DHT22;2990;48.746;9.236;2023-03-01T00:51:16;-1.40;99.90
5930;DHT22;2990;48.746;9.236;2023-03-01T00:53:42;-1.40;99.90
5930;DHT22;2990;48.746;9.236;2023-03-01T00:56:10;-1.40;99.90
5930;DHT22;2990;48.746;9.236;2023-03-01T00:58:39;-1.50;99.90
5930;DHT22;2990;48.746;9.236;2023-03-01T01:01:11;-1.60;1.00
5930;DHT22;2990;48.746;9.236;2023-03-01T01:03:52;-1.60;1.00
5930;DHT22;2990;48.746;9.236;2023-03-01T01:06:24;-1.50;28.20
5930;DHT22;2990;48.746;9.236;2023-03-01T01:08:51;-1.50;1.00
5930;DHT22;2990;48.746;9.236;2023-03-01T01:11:17;-1.50;1.00
5930;DHT22;2990;48.746;9.236;2023-03-01T01:13:44;-1.50;1.00
5930;DHT22;2990;48.746;9.236;2023-03-01T01:16:10;-1.40;1.00
5930;DHT22;2990;48.746;9.236;2023-03-01T01:18:36;-1.40;99.90
5930;DHT22;2990;48.746;9.236;2023-03-01T01:21:07;-1.30;1.00
5930;DHT22;2990;48.746;9.236;2023-03-01T01:23:33;-1.50;99.90
5930;DHT22;2990;48.746;9.236;2023-03-01T01:26:08;-1.60;1.00
5930;DHT22;2990;48.746;9.236;2023-03-01T01:28:34;-1.60;36.00
5930;DHT22;2990;48.746;9.236;2023-03-01T01:30:59;-1.70;99.90
5930;DHT22;2990;48.746;9.236;2023-03-01T01:33:25;-1.60;1.00
5930;DHT22;2990;48.746;9.236;2023-03-01T01:35:54;-1.70;1.00
5930;DHT22;2990;48.746;9.236;2023-03-01T01:38:20;-1.70;1.00
5930;DHT22;2990;48.746;9.236;2023-03-01T01:40:48;-1.70;1.00
5930;DHT22;2990;48.746;9.236;2023-03-01T01:45:44;-1.80;1.00
5930;DHT22;2990;48.746;9.236;2023-03-01T01:48:16;-1.80;30.40
5930;DHT22;2990;48.746;9.236;2023-03-01T01:50:43;-1.70;99.90
5930;DHT22;2990;48.746;9.236;2023-03-01T01:53:14;-1.50;1.00
5930;DHT22;2990;48.746;9.236;2023-03-01T01:55:44;-1.40;99.90
5930;DHT22;2990;48.746;9.236;2023-03-01T01:58:12;-1.40;1.00
5930;DHT22;2990;48.746;9.236;2023-03-01T02:00:39;-1.20;1.00
5930;DHT22;2990;48.746;9.236;2023-03-01T02:03:10;-1.20;1.00
5930;DHT22;2990;48.746;9.236;2023-03-01T02:08:23;-1.20;99.90
5930;DHT22;2990;48.746;9.236;2023-03-01T02:10:51;-1.10;99.90
5930;DHT22;2990;48.746;9.236;2023-03-01T02:13:18;-1.20;99.90
5930;DHT22;2990;48.746;9.236;2023-03-01T02:15:43;-1.10;99.90
5930;DHT22;2990;48.746;9.236;2023-03-01T02:18:18;-1.10;1.00
5930;DHT22;2990;48.746;9.236;2023-03-01T02:23:23;-1.10;1.00
5930;DHT22;2990;48.746;9.236;2023-03-01T02:28:53;-1.00;84.00
5930;DHT22;2990;48.746;9.236;2023-03-01T02:31:20;-1.10;99.90
5930;DHT22;2990;48.746;9.236;2023-03-01T02:34:05;-1.10;99.90
5930;DHT22;2990;48.746;9.236;2023-03-01T02:36:38;-1.10;99.90
5930;DHT22;2990;48.746;9.236;2023-03-01T02:39:06;-1.00;99.90
5930;DHT22;2990;48.746;9.236;2023-03-01T02:41:36;-1.10;15.10
5930;DHT22;2990;48.746;9.236;2023-03-01T02:44:03;-1.00;99.90
5930;DHT22;2990;48.746;9.236;2023-03-01T02:46:28;-1.00;99.90
5930;DHT22;2990;48.746;9.236;2023-03-01T02:48:58;-1.00;26.90
5930;DHT22;2990;48.746;9.236;2023-03-01T02:51:31;-1.10;1.00
5930;DHT22;2990;48.746;9.236;2023-03-01T02:56:49;-1.00;99.90
5930;DHT22;2990;48.746;9.236;2023-03-01T02:59:21;-1.00;99.90
5930;DHT22;2990;48.746;9.236;2023-03-01T03:01:47;-0.80;99.90
5930;DHT22;2990;48.746;9.236;2023-03-01T03:04:18;-1.00;4.40
5930;DHT22;2990;48.746;9.236;2023-03-01T03:06:45;-0.70;1.00
5930;DHT22;2990;48.746;9.236;2023-03-01T03:09:12;-0.90;1.00
5930;DHT22;2990;48.746;9.236;2023-03-01T03:11:38;-0.90;1.00
5930;DHT22;2990;48.746;9.236;2023-03-01T03:14:07;-1.00;1.00
5930;DHT22;2990;48.746;9.236;2023-03-01T03:16:40;-1.00;10.00
5930;DHT22;2990;48.746;9.236;2023-03-01T03:19:05;-1.00;99.90
5930;DHT22;2990;48.746;9.236;2023-03-01T03:21:32;-1.00;99.90
5930;DHT22;2990;48.746;9.236;2023-03-01T03:23:58;-1.00;99.90
5930;DHT22;2990;48.746;9.236;2023-03-01T03:26:24;-1.00;99.90
5930;DHT22;2990;48.746;9.236;2023-03-01T03:28:50;-1.00;99.90
5930;DHT22;2990;48.746;9.236;2023-03-01T03:31:16;-1.00;99.90
5930;DHT22;2990;48.746;9.236;2023-03-01T03:33:42;-1.00;94.10
5930;DHT22;2990;48.746;9.236;2023-03-01T03:36:07;-1.00;26.80
5930;DHT22;2990;48.746;9.236;2023-03-01T03:38:39;-1.00;99.90
5930;DHT22;2990;48.746;9.236;2023-03-01T03:41:07;-0.90;51.70
5930;DHT22;2990;48.746;9.236;2023-03-01T03:43:35;-0.90;1.00
5930;DHT22;2990;48.746;9.236;2023-03-01T03:46:01;-1.00;1.00
5930;DHT22;2990;48.746;9.236;2023-03-01T03:48:32;-0.90;6.40
5930;DHT22;2990;48.746;9.236;2023-03-01T03:50:58;-0.90;99.90
5930;DHT22;2990;48.746;9.236;2023-03-01T03:53:26;-0.80;1.00
5930;DHT22;2990;48.746;9.236;2023-03-01T03:55:53;-0.80;1.00
5930;DHT22;2990;48.746;9.236;2023-03-01T03:58:21;-0.80;1.00
5930;DHT22;2990;48.746;9.236;2023-03-01T04:00:51;-0.90;1.00
5930;DHT22;2990;48.746;9.236;2023-03-01T04:03:18;-0.90;1.00
5930;DHT22;2990;48.746;9.236;2023-03-01T04:05:44;-0.90;99.90
5930;DHT22;2990;48.746;9.236;2023-03-01T04:08:10;-0.80;1.00
5930;DHT22;2990;48.746;9.236;2023-03-01T04:13:05;-0.80;59.20
5930;DHT22;2990;48.746;9.236;2023-03-01T04:15:31;-0.80;1.00
5930;DHT22;2990;48.746;9.236;2023-03-01T04:17:58;-0.90;1.00
5930;DHT22;2990;48.746;9.236;2023-03-01T04:20:26;-0.80;99.90
5930;DHT22;2990;48.746;9.236;2023-03-01T04:23:07;-0.90;99.90
5930;DHT22;2990;48.746;9.236;2023-03-01T04:25:44;-0.90;99.90
5930;DHT22;2990;48.746;9.236;2023-03-01T04:28:10;-0.90;99.90
5930;DHT22;2990;48.746;9.236;2023-03-01T04:30:37;-0.90;99.90
5930;DHT22;2990;48.746;9.236;2023-03-01T04:33:05;-0.90;99.90
5930;DHT22;2990;48.746;9.236;2023-03-01T04:35:31;-0.90;99.90
5930;DHT22;2990;48.746;9.236;2023-03-01T04:37:57;-0.90;99.90
5930;DHT22;2990;48.746;9.236;2023-03-01T04:40:23;-0.70;99.90
5930;DHT22;2990;48.746;9.236;2023-03-01T04:42:49;-0.90;1.00
5930;DHT22;2990;48.746;9.236;2023-03-01T04:45:14;-0.80;99.90
5930;DHT22;2990;48.746;9.236;2023-03-01T04:47:41;-0.80;99.90
5930;DHT22;2990;48.746;9.236;2023-03-01T04:50:09;-0.80;99.90
5930;DHT22;2990;48.746;9.236;2023-03-01T04:52:35;-0.80;99.90
5930;DHT22;2990;48.746;9.236;2023-03-01T04:55:01;-0.80;99.90
5930;DHT22;2990;48.746;9.236;2023-03-01T04:57:26;-0.80;99.90
5930;DHT22;2990;48.746;9.236;2023-03-01T04:59:52;-0.80;99.90
5930;DHT22;2990;48.746;9.236;2023-03-01T05:02:17;-0.80;99.90
5930;DHT22;2990;48.746;9.236;2023-03-01T05:04:43;-0.80;99.90
5930;DHT22;2990;48.746;9.236;2023-03-01T05:07:12;-0.60;99.90
5930;DHT22;2990;48.746;9.236;2023-03-01T05:09:38;-0.80;99.90
5930;DHT22;2990;48.746;9.236;2023-03-01T05:12:06;-0.80;99.90
5930;DHT22;2990;48.746;9.236;2023-03-01T05:14:32;-0.80;99.90
5930;DHT22;2990;48.746;9.236;2023-03-01T05:16:57;-0.70;99.90
5930;DHT22;2990;48.746;9.236;2023-03-01T05:19:29;-0.50;99.90
5930;DHT22;2990;48.746;9.236;2023-03-01T05:21:56;-0.80;99.90
5930;DHT22;2990;48.746;9.236;2023-03-01T05:24:33;-0.70;99.90
5930;DHT22;2990;48.746;9.236;2023-03-01T05:27:00;-0.70;99.90
5930;DHT22;2990;48.746;9.236;2023-03-01T05:29:28;-0.70;99.90
5930;DHT22;2990;48.746;9.236;2023-03-01T05:31:56;-0.70;99.90
5930;DHT22;2990;48.746;9.236;2023-03-01T05:34:33;-0.70;99.90
5930;DHT22;2990;48.746;9.236;2023-03-01T05:37:00;-0.70;99.90
5930;DHT22;2990;48.746;9.236;2023-03-01T05:39:28;-0.80;99.90
5930;DHT22;2990;48.746;9.236;2023-03-01T05:41:58;-0.70;1.00
5930;DHT22;2990;48.746;9.236;2023-03-01T05:44:28;-0.70;99.90
5930;DHT22;2990;48.746;9.236;2023-03-01T05:46:54;-0.80;99.90
5930;DHT22;2990;48.746;9.236;2023-03-01T05:49:21;-0.80;1.00
5930;DHT22;2990;48.746;9.236;2023-03-01T05:51:51;-0.80;99.90
5930;DHT22;2990;48.746;9.236;2023-03-01T05:54:20;-0.80;1.00
5930;DHT22;2990;48.746;9.236;2023-03-01T05:56:47;-0.80;1.00
5930;DHT22;2990;48.746;9.236;2023-03-01T05:59:12;-0.70;1.00
5930;DHT22;2990;48.746;9.236;2023-03-01T06:01:39;-0.60;99.90
5930;DHT22;2990;48.746;9.236;2023-03-01T06:04:04;-0.60;99.90
5930;DHT22;2990;48.746;9.236;2023-03-01T06:06:34;-0.60;99.90
5930;DHT22;2990;48.746;9.236;2023-03-01T06:08:59;-0.40;99.90
5930;DHT22;2990;48.746;9.236;2023-03-01T06:11:25;-0.50;1.00
5930;DHT22;2990;48.746;9.236;2023-03-01T06:13:53;-0.30;1.00
5930;DHT22;2990;48.746;9.236;2023-03-01T06:16:22;-0.50;1.00
5930;DHT22;2990;48.746;9.236;2023-03-01T06:18:47;-0.40;1.00
5930;DHT22;2990;48.746;9.236;2023-03-01T06:21:13;-0.60;99.90
5930;DHT22;2990;48.746;9.236;2023-03-01T06:23:38;-0.60;99.90
5930;DHT22;2990;48.746;9.236;2023-03-01T06:26:08;-0.70;99.90
5930;DHT22;2990;48.746;9.236;2023-03-01T06:28:34;-0.60;1.00
5930;DHT22;2990;48.746;9.236;2023-03-01T06:31:00;-0.60;99.90
5930;DHT22;2990;48.746;9.236;2023-03-01T06:33:26;-0.60;1.00
5930;DHT22;2990;48.746;9.236;2023-03-01T06:35:54;-0.60;99.90
5930;DHT22;2990;48.746;9.236;2023-03-01T06:38:24;-0.70;1.00
5930;DHT22;2990;48.746;9.236;2023-03-01T06:40:53;-0.60;1.00
5930;DHT22;2990;48.746;9.236;2023-03-01T06:43:20;-0.50;99.90
5930;DHT22;2990;48.746;9.236;2023-03-01T06:45:46;-0.50;99.90
5930;DHT22;2990;48.746;9.236;2023-03-01T06:48:14;-0.50;99.90
5930;DHT22;2990;48.746;9.236;2023-03-01T06:50:40;-0.40;99.90
5930;DHT22;2990;48.746;9.236;2023-03-01T06:53:06;-0.30;1.00
5930;DHT22;2990;48.746;9.236;2023-03-01T06:55:32;-0.50;43.00
5930;DHT22;2990;48.746;9.236;2023-03-01T06:57:58;-0.60;72.90
5930;DHT22;2990;48.746;9.236;2023-03-01T07:00:25;-0.60;99.90
5930;DHT22;2990;48.746;9.236;2023-03-01T07:02:52;-0.60;99.90
5930;DHT22;2990;48.746;9.236;2023-03-01T07:05:17;-0.60;1.00
5930;DHT22;2990;48.746;9.236;2023-03-01T07:07:43;-0.60;1.00
5930;DHT22;2990;48.746;9.236;2023-03-01T07:10:10;-0.60;1.00
5930;DHT22;2990;48.746;9.236;2023-03-01T07:12:36;-0.80;1.00
5930;DHT22;2990;48.746;9.236;2023-03-01T07:15:01;-0.80;99.90
5930;DHT22;2990;48.746;9.236;2023-03-01T07:17:27;-0.80;99.90
5930;DHT22;2990;48.746;9.236;2023-03-01T07:19:53;-0.80;99.90
5930;DHT22;2990;48.746;9.236;2023-03-01T07:22:18;-0.80;1.00
5930;DHT22;2990;48.746;9.236;2023-03-01T07:24:44;-0.80;1.00
5930;DHT22;2990;48.746;9.236;2023-03-01T07:27:10;-0.80;99.90
5930;DHT22;2990;48.746;9.236;2023-03-01T07:29:36;-0.80;1.00
5930;DHT22;2990;48.746;9.236;2023-03-01T07:32:03;-0.80;99.90
5930;DHT22;2990;48.746;9.236;2023-03-01T07:34:28;-0.70;99.90
5930;DHT22;2990;48.746;9.236;2023-03-01T07:36:54;-0.70;1.00
5930;DHT22;2990;48.746;9.236;2023-03-01T07:39:20;-0.70;1.00
5930;DHT22;2990;48.746;9.236;2023-03-01T07:41:48;-0.70;99.90
5930;DHT22;2990;48.746;9.236;2023-03-01T07:44:14;-0.60;1.00
5930;DHT22;2990;48.746;9.236;2023-03-01T07:46:40;-0.60;1.00
5930;DHT22;2990;48.746;9.236;2023-03-01T07:49:06;-0.50;1.00
5930;DHT22;2990;48.746;9.236;2023-03-01T07:51:32;-0.50;1.00
5930;DHT22;2990;48.746;9.236;2023-03-01T07:53:57;-0.50;1.00
5930;DHT22;2990;48.746;9.236;2023-03-01T07:56:23;-0.40;99.90
5930;DHT22;2990;48.746;9.236;2023-03-01T07:58:49;-0.40;1.00
5930;DHT22;2990;48.746;9.236;2023-03-01T08:01:19;-0.40;99.90
5930;DHT22;2990;48.746;9.236;2023-03-01T08:03:45;-0.30;99.90
5930;DHT22;2990;48.746;9.236;2023-03-01T08:06:12;-0.30;99.90
5930;DHT22;2990;48.746;9.236;2023-03-01T08:08:38;-0.10;1.00
5930;DHT22;2990;48.746;9.236;2023-03-01T08:11:05;0.00;1.00
5930;DHT22;2990;48.746;9.236;2023-03-01T08:13:32;0.10;88.80
5930;DHT22;2990;48.746;9.236;2023-03-01T08:16:02;0.10;1.00
5930;DHT22;2990;48.746;9.236;2023-03-01T08:18:28;0.20;1.00
5930;DHT22;2990;48.746;9.236;2023-03-01T08:20:54;0.30;1.00
5930;DHT22;2990;48.746;9.236;2023-03-01T08:23:19;0.40;1.00
5930;DHT22;2990;48.746;9.236;2023-03-01T08:25:47;0.50;99.90
5930;DHT22;2990;48.746;9.236;2023-03-01T08:28:16;0.80;99.90
5930;DHT22;2990;48.746;9.236;2023-03-01T08:30:44;0.80;99.90
5930;DHT22;2990;48.746;9.236;2023-03-01T08:33:13;1.00;99.90
5930;DHT22;2990;48.746;9.236;2023-03-01T08:35:39;1.10;5.40
5930;DHT22;2990;48.746;9.236;2023-03-01T08:38:05;1.20;1.00
5930;DHT22;2990;48.746;9.236;2023-03-01T08:40:30;1.30;1.00
5930;DHT22;2990;48.746;9.236;2023-03-01T08:43:06;1.30;1.00
5930;DHT22;2990;48.746;9.236;2023-03-01T08:45:32;1.50;1.00
5930;DHT22;2990;48.746;9.236;2023-03-01T08:47:58;1.70;1.00
5930;DHT22;2990;48.746;9.236;2023-03-01T08:50:24;2.00;1.00
5930;DHT22;2990;48.746;9.236;2023-03-01T08:52:50;2.10;1.00
5930;DHT22;2990;48.746;9.236;2023-03-01T08:55:16;2.40;1.00
5930;DHT22;2990;48.746;9.236;2023-03-01T08:57:43;2.40;1.00
5930;DHT22;2990;48.746;9.236;2023-03-01T09:00:09;2.70;1.00
5930;DHT22;2990;48.746;9.236;2023-03-01T09:02:36;2.70;1.00
5930;DHT22;2990;48.746;9.236;2023-03-01T09:05:02;2.60;1.00
5930;DHT22;2990;48.746;9.236;2023-03-01T09:07:28;2.70;99.90
5930;DHT22;2990;48.746;9.236;2023-03-01T09:09:59;2.90;99.90
5930;DHT22;2990;48.746;9.236;2023-03-01T09:12:24;3.20;99.90
5930;DHT22;2990;48.746;9.236;2023-03-01T09:14:50;3.10;99.90
5930;DHT22;2990;48.746;9.236;2023-03-01T09:17:16;3.10;99.90
5930;DHT22;2990;48.746;9.236;2023-03-01T09:19:41;3.30;99.90
5930;DHT22;2990;48.746;9.236;2023-03-01T09:22:07;3.10;99.90
5930;DHT22;2990;48.746;9.236;2023-03-01T09:24:33;3.20;99.90
5930;DHT22;2990;48.746;9.236;2023-03-01T09:26:58;3.50;99.90
5930;DHT22;2990;48.746;9.236;2023-03-01T09:29:24;3.70;99.90
5930;DHT22;2990;48.746;9.236;2023-03-01T09:31:51;3.80;99.90
5930;DHT22;2990;48.746;9.236;2023-03-01T09:34:17;3.90;99.90
5930;DHT22;2990;48.746;9.236;2023-03-01T09:36:48;4.00;99.90
5930;DHT22;2990;48.746;9.236;2023-03-01T09:39:14;4.00;99.90
5930;DHT22;2990;48.746;9.236;2023-03-01T09:44:42;4.10;99.90
5930;DHT22;2990;48.746;9.236;2023-03-01T09:47:23;4.30;99.90
5930;DHT22;2990;48.746;9.236;2023-03-01T09:52:41;4.30;99.90
5930;DHT22;2990;48.746;9.236;2023-03-01T09:55:14;4.30;99.90
5930;DHT22;2990;48.746;9.236;2023-03-01T09:57:50;4.20;99.90
5930;DHT22;2990;48.746;9.236;2023-03-01T10:00:43;4.70;99.90
5930;DHT22;2990;48.746;9.236;2023-03-01T10:03:25;4.90;99.90
5930;DHT22;2990;48.746;9.236;2023-03-01T10:11:41;4.90;99.90
5930;DHT22;2990;48.746;9.236;2023-03-01T10:14:13;5.20;99.90
5930;DHT22;2990;48.746;9.236;2023-03-01T10:16:50;5.20;99.90
5930;DHT22;2990;48.746;9.236;2023-03-01T10:19:44;5.30;99.90
5930;DHT22;2990;48.746;9.236;2023-03-01T10:22:24;5.70;99.90
5930;DHT22;2990;48.746;9.236;2023-03-01T10:24:54;5.40;99.90
5930;DHT22;2990;48.746;9.236;2023-03-01T10:27:24;5.40;99.90
5930;DHT22;2990;48.746;9.236;2023-03-01T10:30:21;5.60;99.90
5930;DHT22;2990;48.746;9.236;2023-03-01T10:32:46;5.90;99.90
5930;DHT22;2990;48.746;9.236;2023-03-01T10:35:18;6.00;99.90
5930;DHT22;2990;48.746;9.236;2023-03-01T10:38:07;6.50;99.90
5930;DHT22;2990;48.746;9.236;2023-03-01T10:40:35;6.50;99.90
5930;DHT22;2990;48.746;9.236;2023-03-01T10:43:04;6.00;99.90
5930;DHT22;2990;48.746;9.236;2023-03-01T10:45:35;6.10;99.90
5930;DHT22;2990;48.746;9.236;2023-03-01T10:48:18;5.90;99.90
5930;DHT22;2990;48.746;9.236;2023-03-01T10:50:50;5.80;99.90
5930;DHT22;2990;48.746;9.236;2023-03-01T10:53:37;5.80;99.90
5930;DHT22;2990;48.746;9.236;2023-03-01T10:56:08;5.80;99.90
5930;DHT22;2990;48.746;9.236;2023-03-01T10:58:36;6.30;99.90
5930;DHT22;2990;48.746;9.236;2023-03-01T11:06:20;6.40;99.90
5930;DHT22;2990;48.746;9.236;2023-03-01T11:08:48;6.30;99.90
5930;DHT22;2990;48.746;9.236;2023-03-01T11:11:31;6.30;99.90
5930;DHT22;2990;48.746;9.236;2023-03-01T11:17:17;6.00;99.90
5930;DHT22;2990;48.746;9.236;2023-03-01T11:22:30;6.20;99.90
5930;DHT22;2990;48.746;9.236;2023-03-01T11:25:03;6.20;99.90
5930;DHT22;2990;48.746;9.236;2023-03-01T11:27:38;6.50;99.90
5930;DHT22;2990;48.746;9.236;2023-03-01T11:32:40;6.70;99.90
5930;DHT22;2990;48.746;9.236;2023-03-01T11:35:22;6.70;99.90
5930;DHT22;2990;48.746;9.236;2023-03-01T12:00:57;7.10;99.90
5930;DHT22;2990;48.746;9.236;2023-03-01T12:03:23;7.00;99.90
5930;DHT22;2990;48.746;9.236;2023-03-01T12:05:54;7.10;99.90
5930;DHT22;2990;48.746;9.236;2023-03-01T12:11:58;7.10;99.90
5930;DHT22;2990;48.746;9.236;2023-03-01T12:22:47;7.30;99.90
5930;DHT22;2990;48.746;9.236;2023-03-01T12:45:23;7.40;99.90
5930;DHT22;2990;48.746;9.236;2023-03-01T12:50:20;7.60;99.90
5930;DHT22;2990;48.746;9.236;2023-03-01T12:52:57;7.80;99.90
5930;DHT22;2990;48.746;9.236;2023-03-01T12:55:33;7.80;99.90
5930;DHT22;2990;48.746;9.236;2023-03-01T13:07:14;8.00;96.10
5930;DHT22;2990;48.746;9.236;2023-03-01T13:20:21;7.70;90.30
5930;DHT22;2990;48.746;9.236;2023-03-01T13:23:01;7.50;90.40
5930;DHT22;2990;48.746;9.236;2023-03-01T13:25:27;7.50;92.00
5930;DHT22;2990;48.746;9.236;2023-03-01T13:30:57;7.60;92.30
5930;DHT22;2990;48.746;9.236;2023-03-01T13:35:52;7.50;98.10
5930;DHT22;2990;48.746;9.236;2023-03-01T13:41:03;7.50;99.90
5930;DHT22;2990;48.746;9.236;2023-03-01T13:43:32;7.60;99.90
5930;DHT22;2990;48.746;9.236;2023-03-01T13:45:59;7.50;99.90
5930;DHT22;2990;48.746;9.236;2023-03-01T13:48:30;7.70;98.90
5930;DHT22;2990;48.746;9.236;2023-03-01T13:51:02;7.50;97.80
5930;DHT22;2990;48.746;9.236;2023-03-01T13:53:40;7.50;98.90
5930;DHT22;2990;48.746;9.236;2023-03-01T13:56:20;7.60;95.50
5930;DHT22;2990;48.746;9.236;2023-03-01T13:58:53;7.90;97.50
5930;DHT22;2990;48.746;9.236;2023-03-01T14:01:32;7.80;97.00
5930;DHT22;2990;48.746;9.236;2023-03-01T14:03:58;7.70;99.90
5930;DHT22;2990;48.746;9.236;2023-03-01T14:06:32;7.80;96.40
5930;DHT22;2990;48.746;9.236;2023-03-01T14:19:19;7.90;99.60
5930;DHT22;2990;48.746;9.236;2023-03-01T14:21:58;7.90;99.20
5930;DHT22;2990;48.746;9.236;2023-03-01T14:24:26;7.80;98.60
5930;DHT22;2990;48.746;9.236;2023-03-01T14:26:52;7.80;98.00
5930;DHT22;2990;48.746;9.236;2023-03-01T14:29:35;7.90;99.90
5930;DHT22;2990;48.746;9.236;2023-03-01T14:32:15;7.80;99.00
5930;DHT22;2990;48.746;9.236;2023-03-01T14:34:45;7.80;99.90
5930;DHT22;2990;48.746;9.236;2023-03-01T14:37:32;7.90;99.90
5930;DHT22;2990;48.746;9.236;2023-03-01T14:40:00;7.90;99.90
5930;DHT22;2990;48.746;9.236;2023-03-01T14:42:34;7.90;99.90
5930;DHT22;2990;48.746;9.236;2023-03-01T14:45:01;7.60;99.90
5930;DHT22;2990;48.746;9.236;2023-03-01T14:47:35;7.60;99.90
5930;DHT22;2990;48.746;9.236;2023-03-01T14:50:15;7.50;95.50
5930;DHT22;2990;48.746;9.236;2023-03-01T14:52:46;7.40;99.90
5930;DHT22;2990;48.746;9.236;2023-03-01T14:57:45;7.50;99.90
5930;DHT22;2990;48.746;9.236;2023-03-01T15:00:22;7.50;99.90
5930;DHT22;2990;48.746;9.236;2023-03-01T15:02:50;7.40;99.90
5930;DHT22;2990;48.746;9.236;2023-03-01T15:05:21;7.40;99.90
5930;DHT22;2990;48.746;9.236;2023-03-01T15:07:47;7.40;99.90
5930;DHT22;2990;48.746;9.236;2023-03-01T15:10:32;7.40;99.90
5930;DHT22;2990;48.746;9.236;2023-03-01T15:13:25;7.50;99.90
5930;DHT22;2990;48.746;9.236;2023-03-01T15:16:00;7.40;99.90
5930;DHT22;2990;48.746;9.236;2023-03-01T15:18:28;7.40;99.90
5930;DHT22;2990;48.746;9.236;2023-03-01T15:20:56;7.60;99.90
5930;DHT22;2990;48.746;9.236;2023-03-01T15:23:30;7.40;99.90
5930;DHT22;2990;48.746;9.236;2023-03-01T15:26:00;7.30;99.90
5930;DHT22;2990;48.746;9.236;2023-03-01T15:28:34;7.20;99.90
5930;DHT22;2990;48.746;9.236;2023-03-01T15:31:24;7.30;99.90
5930;DHT22;2990;48.746;9.236;2023-03-01T15:33:51;7.10;99.90
5930;DHT22;2990;48.746;9.236;2023-03-01T15:36:40;7.00;99.90
5930;DHT22;2990;48.746;9.236;2023-03-01T15:47:47;6.90;99.90
5930;DHT22;2990;48.746;9.236;2023-03-01T15:50:28;6.90;99.90
5930;DHT22;2990;48.746;9.236;2023-03-01T15:52:56;6.80;99.90
5930;DHT22;2990;48.746;9.236;2023-03-01T15:55:28;6.70;99.90
5930;DHT22;2990;48.746;9.236;2023-03-01T15:58:22;6.70;99.90
5930;DHT22;2990;48.746;9.236;2023-03-01T16:00:52;6.60;99.90
5930;DHT22;2990;48.746;9.236;2023-03-01T16:03:22;6.60;99.90
5930;DHT22;2990;48.746;9.236;2023-03-01T16:05:57;6.60;99.90
5930;DHT22;2990;48.746;9.236;2023-03-01T16:08:39;6.40;99.90
5930;DHT22;2990;48.746;9.236;2023-03-01T16:11:21;6.40;99.90
5930;DHT22;2990;48.746;9.236;2023-03-01T16:13:49;6.30;99.90
5930;DHT22;2990;48.746;9.236;2023-03-01T16:16:18;6.10;99.90
5930;DHT22;2990;48.746;9.236;2023-03-01T16:18:51;6.10;99.90
5930;DHT22;2990;48.746;9.236;2023-03-01T16:21:22;6.00;99.90
5930;DHT22;2990;48.746;9.236;2023-03-01T16:24:24;5.90;99.90
5930;DHT22;2990;48.746;9.236;2023-03-01T16:26:51;5.80;99.90
5930;DHT22;2990;48.746;9.236;2023-03-01T16:29:17;5.70;99.90
5930;DHT22;2990;48.746;9.236;2023-03-01T16:31:42;5.80;99.90
5930;DHT22;2990;48.746;9.236;2023-03-01T16:34:08;5.70;99.90
5930;DHT22;2990;48.746;9.236;2023-03-01T16:36:36;5.60;99.90
5930;DHT22;2990;48.746;9.236;2023-03-01T16:39:02;5.60;99.90
5930;DHT22;2990;48.746;9.236;2023-03-01T16:41:28;5.50;99.90
5930;DHT22;2990;48.746;9.236;2023-03-01T16:43:54;5.40;99.90
5930;DHT22;2990;48.746;9.236;2023-03-01T16:46:26;5.40;99.90
5930;DHT22;2990;48.746;9.236;2023-03-01T16:48:54;5.40;99.90
5930;DHT22;2990;48.746;9.236;2023-03-01T16:51:20;5.30;99.90
5930;DHT22;2990;48.746;9.236;2023-03-01T16:53:50;5.40;99.90
5930;DHT22;2990;48.746;9.236;2023-03-01T16:56:17;5.30;99.90
5930;DHT22;2990;48.746;9.236;2023-03-01T16:58:43;5.20;99.90
5930;DHT22;2990;48.746;9.236;2023-03-01T17:01:21;5.30;99.90
5930;DHT22;2990;48.746;9.236;2023-03-01T17:03:52;5.20;99.90
5930;DHT22;2990;48.746;9.236;2023-03-01T17:06:21;5.10;99.90
5930;DHT22;2990;48.746;9.236;2023-03-01T17:08:48;5.20;99.90
5930;DHT22;2990;48.746;9.236;2023-03-01T17:11:18;5.00;99.90
5930;DHT22;2990;48.746;9.236;2023-03-01T17:13:44;5.00;99.90
5930;DHT22;2990;48.746;9.236;2023-03-01T17:16:12;4.90;99.90
5930;DHT22;2990;48.746;9.236;2023-03-01T17:18:39;4.90;99.90
5930;DHT22;2990;48.746;9.236;2023-03-01T17:21:06;4.90;99.90
5930;DHT22;2990;48.746;9.236;2023-03-01T17:23:32;4.90;99.90
5930;DHT22;2990;48.746;9.236;2023-03-01T17:26:02;4.80;99.90
5930;DHT22;2990;48.746;9.236;2023-03-01T17:28:30;4.80;99.90
5930;DHT22;2990;48.746;9.236;2023-03-01T17:30:58;4.70;99.90
5930;DHT22;2990;48.746;9.236;2023-03-01T17:33:27;4.70;99.90
5930;DHT22;2990;48.746;9.236;2023-03-01T17:35:56;4.70;99.90
5930;DHT22;2990;48.746;9.236;2023-03-01T17:38:22;4.60;99.90
5930;DHT22;2990;48.746;9.236;2023-03-01T17:40:47;4.60;99.90
5930;DHT22;2990;48.746;9.236;2023-03-01T17:43:15;4.60;99.90
5930;DHT22;2990;48.746;9.236;2023-03-01T17:45:59;4.60;99.90
5930;DHT22;2990;48.746;9.236;2023-03-01T18:11:13;4.30;99.90
5930;DHT22;2990;48.746;9.236;2023-03-01T18:17:16;4.20;99.90
5930;DHT22;2990;48.746;9.236;2023-03-01T18:32:58;4.10;99.90
5930;DHT22;2990;48.746;9.236;2023-03-01T18:45:58;3.90;99.90
5930;DHT22;2990;48.746;9.236;2023-03-01T19:04:01;3.60;99.90
5930;DHT22;2990;48.746;9.236;2023-03-01T19:12:24;3.60;99.90
5930;DHT22;2990;48.746;9.236;2023-03-01T19:14:52;3.50;99.90
5930;DHT22;2990;48.746;9.236;2023-03-01T19:17:20;3.40;99.90
5930;DHT22;2990;48.746;9.236;2023-03-01T19:19:46;3.40;99.90
5930;DHT22;2990;48.746;9.236;2023-03-01T19:22:50;3.30;99.90
5930;DHT22;2990;48.746;9.236;2023-03-01T19:25:37;3.20;99.90
5930;DHT22;2990;48.746;9.236;2023-03-01T19:28:13;3.40;99.90
5930;DHT22;2990;48.746;9.236;2023-03-01T19:30:39;3.30;99.90
5930;DHT22;2990;48.746;9.236;2023-03-01T19:33:29;3.30;99.90
5930;DHT22;2990;48.746;9.236;2023-03-01T20:12:11;3.30;99.90
5930;DHT22;2990;48.746;9.236;2023-03-01T20:52:09;3.30;99.90
5930;DHT22;2990;48.746;9.236;2023-03-01T21:08:47;3.00;1.00
5930;DHT22;2990;48.746;9.236;2023-03-01T21:11:13;3.00;1.00
5930;DHT22;2990;48.746;9.236;2023-03-01T21:17:22;2.90;1.00
5930;DHT22;2990;48.746;9.236;2023-03-01T21:19:53;2.90;1.00
5930;DHT22;2990;48.746;9.236;2023-03-01T21:22:19;2.90;1.00
5930;DHT22;2990;48.746;9.236;2023-03-01T21:24:47;2.80;1.00
5930;DHT22;2990;48.746;9.236;2023-03-01T21:27:17;2.80;1.00
5930;DHT22;2990;48.746;9.236;2023-03-01T21:29:46;2.80;1.00
5930;DHT22;2990;48.746;9.236;2023-03-01T21:32:17;2.80;1.00
5930;DHT22;2990;48.746;9.236;2023-03-01T21:34:44;2.80;1.00
5930;DHT22;2990;48.746;9.236;2023-03-01T21:37:11;2.80;1.00
5930;DHT22;2990;48.746;9.236;2023-03-01T21:39:37;2.90;1.00
5930;DHT22;2990;48.746;9.236;2023-03-01T21:42:03;2.80;1.00